createdAt,value
2017-02-12T00:00:09.015Z,1013.15
2017-02-12T00:01:08.996Z,1013.15
2017-02-12T00:02:08.972Z,1013.15
2017-02-12T00:03:08.957Z,1013.16
2017-02-12T00:04:08.929Z,1013.16
2017-02-12T00:05:08.908Z,1013.19
2017-02-12T00:06:08.886Z,1013.18
2017-02-12T00:07:08.865Z,1013.19
2017-02-12T00:08:08.843Z,1013.24
2017-02-12T00:09:08.824Z,1013.25
2017-02-12T00:10:08.799Z,1013.26
2017-02-12T00:11:08.778Z,1013.27
2017-02-12T00:12:08.757Z,1013.33
2017-02-12T00:13:08.736Z,1013.29
2017-02-12T00:14:08.717Z,1013.4
2017-02-12T00:15:08.695Z,1013.39
2017-02-12T00:16:08.672Z,1013.36
2017-02-12T00:17:08.648Z,1013.33
2017-02-12T00:18:08.628Z,1013.37
2017-02-12T00:19:08.606Z,1013.33
2017-02-12T00:20:08.585Z,1013.36
2017-02-12T00:21:08.567Z,1013.34
2017-02-12T00:22:08.542Z,1013.31
2017-02-12T00:23:08.520Z,1013.32
2017-02-12T00:24:08.500Z,1013.32
2017-02-12T00:25:08.476Z,1013.33
2017-02-12T00:26:08.456Z,1013.34
2017-02-12T00:27:08.434Z,1013.36
2017-02-12T00:28:08.411Z,1013.38
2017-02-12T00:29:08.391Z,1013.38
2017-02-12T00:30:08.372Z,1013.34
2017-02-12T00:31:08.348Z,1013.35
2017-02-12T00:32:08.325Z,1013.35
2017-02-12T00:33:08.305Z,1013.37
2017-02-12T00:34:08.282Z,1013.43
2017-02-12T00:35:08.262Z,1013.37
2017-02-12T00:36:08.239Z,1013.38
2017-02-12T00:37:08.218Z,1013.38
2017-02-12T00:38:08.198Z,1013.39
2017-02-12T00:39:08.173Z,1013.43
2017-02-12T00:40:08.151Z,1013.42
2017-02-12T00:41:08.131Z,1013.41
2017-02-12T00:42:08.108Z,1013.4
2017-02-12T00:43:08.087Z,1013.38
2017-02-12T00:44:08.064Z,1013.42
2017-02-12T00:45:08.098Z,1013.42
2017-02-12T00:46:08.023Z,1013.41
2017-02-12T00:47:08.001Z,1013.39
2017-02-12T00:48:07.979Z,1013.4
2017-02-12T00:49:07.959Z,1013.47
2017-02-12T00:50:07.935Z,1013.43
2017-02-12T00:51:07.916Z,1013.45
2017-02-12T00:52:07.893Z,1013.38
2017-02-12T00:53:07.875Z,1013.44
2017-02-12T00:54:07.849Z,1013.47
2017-02-12T00:55:07.830Z,1013.48
2017-02-12T00:56:07.807Z,1013.47
2017-02-12T00:57:07.786Z,1013.53
2017-02-12T00:58:07.764Z,1013.53
2017-02-12T00:59:07.744Z,1013.52
2017-02-12T01:00:07.725Z,1013.55
2017-02-12T01:01:07.699Z,1013.5
2017-02-12T01:02:07.679Z,1013.56
2017-02-12T01:03:07.658Z,1013.54
2017-02-12T01:04:07.634Z,1013.55
2017-02-12T01:05:07.612Z,1013.55
2017-02-12T01:06:07.592Z,1013.58
2017-02-12T01:07:07.569Z,1013.53
2017-02-12T01:08:07.547Z,1013.57
2017-02-12T01:09:07.530Z,1013.58
2017-02-12T01:10:07.502Z,1013.54
2017-02-12T01:11:07.484Z,1013.56
2017-02-12T01:12:07.465Z,1013.61
2017-02-12T01:13:07.444Z,1013.62
2017-02-12T01:14:07.419Z,1013.63
2017-02-12T01:15:07.399Z,1013.69
2017-02-12T01:16:07.374Z,1013.65
2017-02-12T01:17:07.354Z,1013.65
2017-02-12T01:18:07.329Z,1013.67
2017-02-12T01:19:07.308Z,1013.68
2017-02-12T01:20:07.286Z,1013.71
2017-02-12T01:21:07.264Z,1013.7
2017-02-12T01:22:07.244Z,1013.71
2017-02-12T01:23:07.220Z,1013.71
2017-02-12T01:24:07.200Z,1013.74
2017-02-12T01:25:07.179Z,1013.78
2017-02-12T01:26:07.156Z,1013.83
2017-02-12T01:27:07.133Z,1013.8
2017-02-12T01:28:07.109Z,1013.79
2017-02-12T01:29:07.092Z,1013.8
2017-02-12T01:30:07.069Z,1013.79
2017-02-12T01:31:07.047Z,1013.79
2017-02-12T01:32:07.024Z,1013.77
2017-02-12T01:33:07.003Z,1013.79
2017-02-12T01:34:06.979Z,1013.8
2017-02-12T01:35:06.959Z,1013.82
2017-02-12T01:36:06.937Z,1013.83
2017-02-12T01:37:06.915Z,1013.83
2017-02-12T01:38:06.892Z,1013.8
2017-02-12T01:39:06.870Z,1013.81
2017-02-12T01:40:06.857Z,1013.84
2017-02-12T01:41:06.829Z,1013.83
2017-02-12T01:42:06.804Z,1013.83
2017-02-12T01:43:06.785Z,1013.76
2017-02-12T01:44:06.763Z,1013.78
2017-02-12T01:45:06.740Z,1013.76
2017-02-12T01:46:06.718Z,1013.77
2017-02-12T01:47:06.698Z,1013.78
2017-02-12T01:48:06.674Z,1013.78
2017-02-12T01:49:06.653Z,1013.81
2017-02-12T01:50:06.631Z,1013.86
2017-02-12T01:51:06.611Z,1013.83
2017-02-12T01:52:06.588Z,1013.85
2017-02-12T01:53:06.568Z,1013.84
2017-02-12T01:54:06.543Z,1013.81
2017-02-12T01:55:06.523Z,1013.79
2017-02-12T01:56:06.500Z,1013.75
2017-02-12T01:57:06.476Z,1013.78
2017-02-12T01:58:06.457Z,1013.82
2017-02-12T01:59:06.436Z,1013.79
2017-02-12T02:00:06.413Z,1013.79
2017-02-12T02:01:06.390Z,1013.77
2017-02-12T02:02:06.368Z,1013.8
2017-02-12T02:03:06.347Z,1013.83
2017-02-12T02:04:06.325Z,1013.85
2017-02-12T02:05:06.305Z,1013.86
2017-02-12T02:06:06.282Z,1013.86
2017-02-12T02:07:06.258Z,1013.91
2017-02-12T02:08:06.238Z,1013.9
2017-02-12T02:09:06.214Z,1013.89
2017-02-12T02:10:06.193Z,1013.92
2017-02-12T02:11:06.176Z,1013.84
2017-02-12T02:12:06.150Z,1013.84
2017-02-12T02:13:06.130Z,1013.89
2017-02-12T02:14:06.104Z,1013.81
2017-02-12T02:15:06.083Z,1013.84
2017-02-12T02:16:06.061Z,1013.9
2017-02-12T02:17:06.041Z,1013.92
2017-02-12T02:18:06.019Z,1013.96
2017-02-12T02:19:05.997Z,1013.96
2017-02-12T02:20:05.973Z,1014
2017-02-12T02:21:05.954Z,1013.99
2017-02-12T02:22:05.931Z,1014
2017-02-12T02:23:05.912Z,1014.02
2017-02-12T02:24:06.090Z,1014.03
2017-02-12T02:25:05.866Z,1013.99
2017-02-12T02:26:05.844Z,1014.06
2017-02-12T02:27:05.821Z,1014.05
2017-02-12T02:28:05.802Z,1014.09
2017-02-12T02:29:05.777Z,1014.11
2017-02-12T02:30:05.756Z,1014.13
2017-02-12T02:31:05.734Z,1014.11
2017-02-12T02:32:05.711Z,1014.14
2017-02-12T02:33:05.700Z,1014.14
2017-02-12T02:34:05.669Z,1014.2
2017-02-12T02:35:05.648Z,1014.17
2017-02-12T02:36:05.625Z,1014.22
2017-02-12T02:37:05.605Z,1014.24
2017-02-12T02:38:05.582Z,1014.26
2017-02-12T02:39:05.560Z,1014.23
2017-02-12T02:40:05.537Z,1014.25
2017-02-12T02:41:05.514Z,1014.16
2017-02-12T02:42:05.492Z,1014.18
2017-02-12T02:43:05.521Z,1014.17
2017-02-12T02:44:05.449Z,1014.16
2017-02-12T02:45:05.427Z,1014.2
2017-02-12T02:46:05.409Z,1014.19
2017-02-12T02:47:05.383Z,1014.17
2017-02-12T02:48:05.361Z,1014.14
2017-02-12T02:49:05.340Z,1014.23
2017-02-12T02:50:05.319Z,1014.21
2017-02-12T02:51:05.294Z,1014.22
2017-02-12T02:52:05.272Z,1014.2
2017-02-12T02:53:05.252Z,1014.18
2017-02-12T02:54:05.231Z,1014.19
2017-02-12T02:55:05.208Z,1014.19
2017-02-12T02:56:05.186Z,1014.25
2017-02-12T02:57:05.165Z,1014.21
2017-02-12T02:58:05.144Z,1014.15
2017-02-12T02:59:05.119Z,1014.16
2017-02-12T03:00:05.096Z,1014.15
2017-02-12T03:01:05.076Z,1014.18
2017-02-12T03:02:05.051Z,1014.1
2017-02-12T03:03:05.031Z,1014.08
2017-02-12T03:04:05.011Z,1014.12
2017-02-12T03:05:04.986Z,1014.18
2017-02-12T03:06:04.963Z,1014.17
2017-02-12T03:07:04.942Z,1014.25
2017-02-12T03:08:04.928Z,1014.24
2017-02-12T03:09:04.898Z,1014.3
2017-02-12T03:10:04.875Z,1014.26
2017-02-12T03:11:04.857Z,1014.28
2017-02-12T03:12:04.830Z,1014.23
2017-02-12T03:13:04.808Z,1014.29
2017-02-12T03:14:04.790Z,1014.26
2017-02-12T03:15:04.771Z,1014.28
2017-02-12T03:16:04.746Z,1014.27
2017-02-12T03:17:04.724Z,1014.27
2017-02-12T03:18:04.705Z,1014.32
2017-02-12T03:19:04.677Z,1014.31
2017-02-12T03:20:04.656Z,1014.32
2017-02-12T03:21:04.631Z,1014.34
2017-02-12T03:22:04.611Z,1014.31
2017-02-12T03:23:04.593Z,1014.31
2017-02-12T03:24:04.566Z,1014.23
2017-02-12T03:25:04.547Z,1014.29
2017-02-12T03:26:04.524Z,1014.33
2017-02-12T03:27:04.501Z,1014.33
2017-02-12T03:28:04.481Z,1014.33
2017-02-12T03:29:04.456Z,1014.37
2017-02-12T03:30:04.485Z,1014.37
2017-02-12T03:31:04.411Z,1014.38
2017-02-12T03:32:04.390Z,1014.39
2017-02-12T03:33:04.370Z,1014.47
2017-02-12T03:34:04.395Z,1014.45
2017-02-12T03:35:04.373Z,1014.52
2017-02-12T03:36:04.301Z,1014.56
2017-02-12T03:37:04.282Z,1014.58
2017-02-12T03:38:04.256Z,1014.56
2017-02-12T03:39:04.234Z,1014.59
2017-02-12T03:40:04.212Z,1014.6
2017-02-12T03:41:04.192Z,1014.58
2017-02-12T03:42:04.168Z,1014.58
2017-02-12T03:43:04.151Z,1014.58
2017-02-12T03:44:04.128Z,1014.57
2017-02-12T03:45:04.104Z,1014.53
2017-02-12T03:46:04.079Z,1014.55
2017-02-12T03:47:04.058Z,1014.55
2017-02-12T03:48:04.037Z,1014.59
2017-02-12T03:49:04.014Z,1014.57
2017-02-12T03:50:03.993Z,1014.59
2017-02-12T03:51:03.970Z,1014.61
2017-02-12T03:52:03.948Z,1014.56
2017-02-12T03:53:03.927Z,1014.59
2017-02-12T03:54:03.904Z,1014.67
2017-02-12T03:55:03.881Z,1014.62
2017-02-12T03:56:03.878Z,1014.61
2017-02-12T03:57:03.838Z,1014.56
2017-02-12T03:58:03.815Z,1014.55
2017-02-12T03:59:03.794Z,1014.59
2017-02-12T04:00:03.772Z,1014.59
2017-02-12T04:01:03.749Z,1014.64
2017-02-12T04:02:03.727Z,1014.65
2017-02-12T04:03:03.705Z,1014.7
2017-02-12T04:04:03.683Z,1014.63
2017-02-12T04:05:03.661Z,1014.64
2017-02-12T04:06:03.638Z,1014.64
2017-02-12T04:07:03.614Z,1014.63
2017-02-12T04:08:03.595Z,1014.66
2017-02-12T04:09:03.573Z,1014.66
2017-02-12T04:10:03.557Z,1014.69
2017-02-12T04:11:03.529Z,1014.67
2017-02-12T04:12:03.505Z,1014.7
2017-02-12T04:13:03.484Z,1014.75
2017-02-12T04:14:03.462Z,1014.74
2017-02-12T04:15:03.440Z,1014.76
2017-02-12T04:16:03.420Z,1014.71
2017-02-12T04:17:03.393Z,1014.76
2017-02-12T04:18:03.371Z,1014.76
2017-02-12T04:19:03.350Z,1014.82
2017-02-12T04:20:03.326Z,1014.82
2017-02-12T04:21:03.306Z,1014.85
2017-02-12T04:22:03.286Z,1014.79
2017-02-12T04:23:03.261Z,1014.84
2017-02-12T04:24:03.439Z,1014.83
2017-02-12T04:25:03.216Z,1014.88
2017-02-12T04:26:03.193Z,1014.9
2017-02-12T04:27:03.170Z,1014.95
2017-02-12T04:28:03.148Z,1014.96
2017-02-12T04:29:03.126Z,1014.95
2017-02-12T04:30:03.104Z,1014.98
2017-02-12T04:31:03.081Z,1014.97
2017-02-12T04:32:03.058Z,1014.99
2017-02-12T04:33:03.035Z,1015.03
2017-02-12T04:34:03.015Z,1015.06
2017-02-12T04:35:02.990Z,1015.1
2017-02-12T04:36:02.969Z,1015.1
2017-02-12T04:37:02.944Z,1015.14
2017-02-12T04:38:02.927Z,1015.15
2017-02-12T04:39:02.901Z,1015.1
2017-02-12T04:40:02.876Z,1015.11
2017-02-12T04:41:02.863Z,1015.08
2017-02-12T04:42:02.833Z,1015.05
2017-02-12T04:43:02.810Z,1015.03
2017-02-12T04:44:02.786Z,1015.01
2017-02-12T04:45:02.764Z,1015.02
2017-02-12T04:46:02.743Z,1015.06
2017-02-12T04:47:02.719Z,1015.1
2017-02-12T04:48:02.695Z,1015.11
2017-02-12T04:49:02.674Z,1015.08
2017-02-12T04:50:02.650Z,1015.07
2017-02-12T04:51:02.628Z,1015.06
2017-02-12T04:52:02.606Z,1015.06
2017-02-12T04:53:02.582Z,1015.03
2017-02-12T04:54:02.560Z,1015.06
2017-02-12T04:55:02.541Z,1015.04
2017-02-12T04:56:02.515Z,1015.05
2017-02-12T04:57:02.494Z,1015.1
2017-02-12T04:58:02.469Z,1015.12
2017-02-12T04:59:02.449Z,1015.09
2017-02-12T05:00:02.433Z,1015.19
2017-02-12T05:01:02.404Z,1015.16
2017-02-12T05:02:02.378Z,1015.26
2017-02-12T05:03:02.358Z,1015.29
2017-02-12T05:04:02.336Z,1015.28
2017-02-12T05:05:02.311Z,1015.29
2017-02-12T05:06:02.286Z,1015.29
2017-02-12T05:07:02.268Z,1015.29
2017-02-12T05:08:02.243Z,1015.29
2017-02-12T05:09:02.219Z,1015.29
2017-02-12T05:10:02.197Z,1015.26
2017-02-12T05:11:02.173Z,1015.33
2017-02-12T05:12:02.150Z,1015.36
2017-02-12T05:13:02.128Z,1015.33
2017-02-12T05:14:02.107Z,1015.32
2017-02-12T05:15:02.085Z,1015.35
2017-02-12T05:16:02.062Z,1015.36
2017-02-12T05:17:02.039Z,1015.38
2017-02-12T05:18:02.015Z,1015.38
2017-02-12T05:19:01.992Z,1015.37
2017-02-12T05:20:01.971Z,1015.45
2017-02-12T05:21:01.948Z,1015.42
2017-02-12T05:22:01.928Z,1015.46
2017-02-12T05:23:01.906Z,1015.46
2017-02-12T05:24:01.879Z,1015.44
2017-02-12T05:25:01.858Z,1015.44
2017-02-12T05:26:01.836Z,1015.41
2017-02-12T05:27:01.812Z,1015.38
2017-02-12T05:28:01.789Z,1015.37
2017-02-12T05:29:01.767Z,1015.38
2017-02-12T05:30:01.745Z,1015.42
2017-02-12T05:31:01.723Z,1015.44
2017-02-12T05:32:01.699Z,1015.47
2017-02-12T05:33:01.677Z,1015.49
2017-02-12T05:34:01.653Z,1015.48
2017-02-12T05:35:01.631Z,1015.47
2017-02-12T05:36:01.609Z,1015.52
2017-02-12T05:37:01.586Z,1015.5
2017-02-12T05:38:01.565Z,1015.48
2017-02-12T05:39:01.539Z,1015.42
2017-02-12T05:40:01.517Z,1015.41
2017-02-12T05:41:01.495Z,1015.35
2017-02-12T05:42:01.473Z,1015.37
2017-02-12T05:43:01.450Z,1015.42
2017-02-12T05:44:01.428Z,1015.36
2017-02-12T05:45:01.407Z,1015.41
2017-02-12T05:46:01.383Z,1015.38
2017-02-12T05:47:01.360Z,1015.38
2017-02-12T05:48:01.338Z,1015.4
2017-02-12T05:49:01.316Z,1015.38
2017-02-12T05:50:01.292Z,1015.37
2017-02-12T05:51:01.270Z,1015.37
2017-02-12T05:52:01.264Z,1015.37
2017-02-12T05:53:01.224Z,1015.38
2017-02-12T05:54:01.201Z,1015.44
2017-02-12T05:55:01.181Z,1015.5
2017-02-12T05:56:01.160Z,1015.52
2017-02-12T05:57:01.132Z,1015.57
2017-02-12T05:58:01.112Z,1015.61
2017-02-12T05:59:01.090Z,1015.62
2017-02-12T06:00:01.066Z,1015.63
2017-02-12T06:01:01.046Z,1015.66
2017-02-12T06:02:01.024Z,1015.66
2017-02-12T06:03:01.002Z,1015.65
2017-02-12T06:04:00.975Z,1015.62
2017-02-12T06:05:00.954Z,1015.62
2017-02-12T06:06:00.931Z,1015.63
2017-02-12T06:07:00.907Z,1015.66
2017-02-12T06:08:00.884Z,1015.67
2017-02-12T06:09:00.868Z,1015.64
2017-02-12T06:10:00.839Z,1015.64
2017-02-12T06:11:00.820Z,1015.65
2017-02-12T06:12:00.796Z,1015.65
2017-02-12T06:13:00.772Z,1015.69
2017-02-12T06:14:00.751Z,1015.69
2017-02-12T06:15:00.727Z,1015.74
2017-02-12T06:16:00.703Z,1015.78
2017-02-12T06:17:00.681Z,1015.84
2017-02-12T06:18:00.658Z,1015.81
2017-02-12T06:19:00.637Z,1015.81
2017-02-12T06:20:00.613Z,1015.74
2017-02-12T06:21:00.591Z,1015.75
2017-02-12T06:22:00.567Z,1015.78
2017-02-12T06:23:00.546Z,1015.76
2017-02-12T06:24:00.725Z,1015.77
2017-02-12T06:25:00.500Z,1015.79
2017-02-12T06:26:00.478Z,1015.86
2017-02-12T06:27:00.456Z,1015.89
2017-02-12T06:28:00.432Z,1015.96
2017-02-12T06:29:00.408Z,1015.92
2017-02-12T06:30:00.388Z,1015.98
2017-02-12T06:31:00.364Z,1015.94
2017-02-12T06:32:00.342Z,1015.94
2017-02-12T06:33:00.319Z,1015.97
2017-02-12T06:34:00.295Z,1016.02
2017-02-12T06:35:00.284Z,1016.07
2017-02-12T06:36:00.251Z,1016.04
2017-02-12T06:37:00.227Z,1016.09
2017-02-12T06:38:00.206Z,1016.08
2017-02-12T06:39:00.187Z,1016.04
2017-02-12T06:40:00.159Z,1016.08
2017-02-12T06:41:00.136Z,1016.11
2017-02-12T06:42:00.112Z,1016.12
2017-02-12T06:43:00.093Z,1016.14
2017-02-12T06:44:00.068Z,1016.15
2017-02-12T06:45:00.044Z,1016.16
2017-02-12T06:46:00.021Z,1016.17
2017-02-12T06:47:00.005Z,1016.19
2017-02-12T06:47:59.976Z,1016.21
2017-02-12T06:48:59.953Z,1016.28
2017-02-12T06:49:59.929Z,1016.33
2017-02-12T06:50:59.907Z,1016.39
2017-02-12T06:51:59.885Z,1016.42
2017-02-12T06:52:59.864Z,1016.45
2017-02-12T06:53:59.843Z,1016.45
2017-02-12T06:54:59.822Z,1016.44
2017-02-12T06:55:59.791Z,1016.38
2017-02-12T06:56:59.771Z,1016.38
2017-02-12T06:57:59.748Z,1016.43
2017-02-12T06:58:59.725Z,1016.43
2017-02-12T06:59:59.705Z,1016.46
2017-02-12T07:00:59.680Z,1016.46
2017-02-12T07:01:59.658Z,1016.5
2017-02-12T07:02:59.631Z,1016.53
2017-02-12T07:03:59.609Z,1016.53
2017-02-12T07:04:59.588Z,1016.56
2017-02-12T07:05:59.564Z,1016.54
2017-02-12T07:06:59.542Z,1016.55
2017-02-12T07:07:59.518Z,1016.53
2017-02-12T07:08:59.495Z,1016.54
2017-02-12T07:09:59.471Z,1016.58
2017-02-12T07:10:59.447Z,1016.6
2017-02-12T07:11:59.429Z,1016.59
2017-02-12T07:12:59.407Z,1016.6
2017-02-12T07:13:59.382Z,1016.68
2017-02-12T07:14:59.359Z,1016.7
2017-02-12T07:15:59.344Z,1016.74
2017-02-12T07:16:59.311Z,1016.73
2017-02-12T07:17:59.290Z,1016.77
2017-02-12T07:18:59.266Z,1016.72
2017-02-12T07:19:59.244Z,1016.79
2017-02-12T07:20:59.223Z,1016.78
2017-02-12T07:21:59.197Z,1016.87
2017-02-12T07:22:59.175Z,1016.88
2017-02-12T07:23:59.153Z,1016.87
2017-02-12T07:24:59.130Z,1016.8
2017-02-12T07:25:59.107Z,1016.91
2017-02-12T07:26:59.084Z,1016.94
2017-02-12T07:27:59.060Z,1016.97
2017-02-12T07:28:59.038Z,1016.98
2017-02-12T07:29:59.016Z,1016.98
2017-02-12T07:30:58.994Z,1016.97
2017-02-12T07:31:58.971Z,1017.01
2017-02-12T07:32:58.949Z,1017.04
2017-02-12T07:33:58.927Z,1017.01
2017-02-12T07:34:58.904Z,1017.01
2017-02-12T07:35:58.880Z,1017.07
2017-02-12T07:36:58.861Z,1017.03
2017-02-12T07:37:58.836Z,1017.07
2017-02-12T07:38:58.811Z,1017.05
2017-02-12T07:39:58.790Z,1017.04
2017-02-12T07:40:58.767Z,1017.08
2017-02-12T07:41:58.746Z,1017.05
2017-02-12T07:42:58.724Z,1017.04
2017-02-12T07:43:58.699Z,1017.06
2017-02-12T07:44:58.678Z,1017.06
2017-02-12T07:45:58.656Z,1017.1
2017-02-12T07:46:58.635Z,1017.08
2017-02-12T07:47:58.613Z,1017.02
2017-02-12T07:48:58.589Z,1017.05
2017-02-12T07:49:58.567Z,1017.03
2017-02-12T07:50:58.543Z,1017.04
2017-02-12T07:51:58.522Z,1017.01
2017-02-12T07:52:58.499Z,1017.05
2017-02-12T07:53:58.479Z,1017.03
2017-02-12T07:54:58.455Z,1017.1
2017-02-12T07:55:58.434Z,1017.1
2017-02-12T07:56:58.411Z,1017.08
2017-02-12T07:57:58.388Z,1017.11
2017-02-12T07:58:58.365Z,1017.06
2017-02-12T07:59:58.344Z,1017.2
2017-02-12T08:00:58.323Z,1017.2
2017-02-12T08:01:58.301Z,1017.2
2017-02-12T08:02:58.277Z,1017.16
2017-02-12T08:03:58.256Z,1017.19
2017-02-12T08:04:58.233Z,1017.17
2017-02-12T08:05:58.207Z,1017.17
2017-02-12T08:06:58.189Z,1017.18
2017-02-12T08:07:58.168Z,1017.16
2017-02-12T08:08:58.143Z,1017.17
2017-02-12T08:09:58.120Z,1017.16
2017-02-12T08:10:58.099Z,1017.19
2017-02-12T08:11:58.076Z,1017.21
2017-02-12T08:12:58.053Z,1017.21
2017-02-12T08:13:58.030Z,1017.27
2017-02-12T08:14:58.009Z,1017.28
2017-02-12T08:15:57.985Z,1017.34
2017-02-12T08:16:57.968Z,1017.33
2017-02-12T08:17:57.943Z,1017.31
2017-02-12T08:18:57.925Z,1017.36
2017-02-12T08:19:57.926Z,1017.34
2017-02-12T08:20:57.881Z,1017.31
2017-02-12T08:21:57.855Z,1017.33
2017-02-12T08:22:57.830Z,1017.26
2017-02-12T08:23:58.008Z,1017.31
2017-02-12T08:24:57.784Z,1017.37
2017-02-12T08:25:57.762Z,1017.42
2017-02-12T08:26:57.743Z,1017.42
2017-02-12T08:27:57.717Z,1017.45
2017-02-12T08:28:57.696Z,1017.45
2017-02-12T08:29:57.673Z,1017.43
2017-02-12T08:30:57.649Z,1017.43
2017-02-12T08:31:57.627Z,1017.53
2017-02-12T08:32:57.607Z,1017.48
2017-02-12T08:33:57.584Z,1017.5
2017-02-12T08:34:57.562Z,1017.56
2017-02-12T08:35:57.540Z,1017.56
2017-02-12T08:36:57.518Z,1017.58
2017-02-12T08:37:57.496Z,1017.57
2017-02-12T08:38:57.478Z,1017.58
2017-02-12T08:39:57.453Z,1017.64
2017-02-12T08:40:57.431Z,1017.6
2017-02-12T08:41:57.407Z,1017.65
2017-02-12T08:42:57.386Z,1017.62
2017-02-12T08:43:57.365Z,1017.66
2017-02-12T08:44:57.343Z,1017.69
2017-02-12T08:45:57.320Z,1017.66
2017-02-12T08:46:57.300Z,1017.67
2017-02-12T08:47:57.278Z,1017.63
2017-02-12T08:48:57.257Z,1017.7
2017-02-12T08:49:57.234Z,1017.7
2017-02-12T08:50:57.213Z,1017.71
2017-02-12T08:51:57.193Z,1017.66
2017-02-12T08:52:57.191Z,1017.66
2017-02-12T08:53:57.152Z,1017.67
2017-02-12T08:54:57.134Z,1017.69
2017-02-12T08:55:57.108Z,1017.72
2017-02-12T08:56:57.088Z,1017.76
2017-02-12T08:57:57.118Z,1017.73
2017-02-12T08:58:57.046Z,1017.77
2017-02-12T08:59:57.030Z,1017.81
2017-02-12T09:00:57.007Z,1017.77
2017-02-12T09:01:56.983Z,1017.78
2017-02-12T09:02:56.963Z,1017.76
2017-02-12T09:03:56.942Z,1017.79
2017-02-12T09:04:56.921Z,1017.79
2017-02-12T09:05:56.900Z,1017.87
2017-02-12T09:06:56.881Z,1017.85
2017-02-12T09:07:56.859Z,1017.82
2017-02-12T09:08:56.841Z,1017.82
2017-02-12T09:09:56.819Z,1017.83
2017-02-12T09:10:56.800Z,1017.85
2017-02-12T09:11:56.779Z,1017.89
2017-02-12T09:12:56.760Z,1017.95
2017-02-12T09:13:56.741Z,1018
2017-02-12T09:14:56.721Z,1018.01
2017-02-12T09:15:56.701Z,1018.06
2017-02-12T09:16:56.679Z,1018.03
2017-02-12T09:17:56.660Z,1018.05
2017-02-12T09:18:56.640Z,1018.04
2017-02-12T09:19:56.619Z,1018.02
2017-02-12T09:20:56.601Z,1018.02
2017-02-12T09:21:56.582Z,1017.98
2017-02-12T09:22:56.559Z,1017.93
2017-02-12T09:23:56.544Z,1017.95
2017-02-12T09:24:56.520Z,1017.97
2017-02-12T09:25:56.498Z,1018
2017-02-12T09:26:56.478Z,1018.04
2017-02-12T09:27:56.458Z,1018.07
2017-02-12T09:28:56.438Z,1018.13
2017-02-12T09:29:56.419Z,1018.19
2017-02-12T09:30:56.399Z,1018.2
2017-02-12T09:31:56.381Z,1018.19
2017-02-12T09:32:56.359Z,1018.22
2017-02-12T09:33:56.342Z,1018.2
2017-02-12T09:34:56.326Z,1018.31
2017-02-12T09:35:56.300Z,1018.31
2017-02-12T09:36:56.284Z,1018.35
2017-02-12T09:37:56.261Z,1018.4
2017-02-12T09:38:56.243Z,1018.37
2017-02-12T09:39:56.223Z,1018.37
2017-02-12T09:40:56.205Z,1018.33
2017-02-12T09:41:56.191Z,1018.37
2017-02-12T09:42:56.167Z,1018.38
2017-02-12T09:43:56.149Z,1018.4
2017-02-12T09:44:56.129Z,1018.41
2017-02-12T09:45:56.114Z,1018.34
2017-02-12T09:46:56.092Z,1018.37
2017-02-12T09:47:56.074Z,1018.4
2017-02-12T09:48:56.057Z,1018.46
2017-02-12T09:49:56.039Z,1018.46
2017-02-12T09:50:56.020Z,1018.43
2017-02-12T09:51:56.000Z,1018.49
2017-02-12T09:52:55.983Z,1018.49
2017-02-12T09:53:55.965Z,1018.48
2017-02-12T09:54:55.946Z,1018.48
2017-02-12T09:55:55.935Z,1018.49
2017-02-12T09:56:55.911Z,1018.46
2017-02-12T09:57:55.896Z,1018.5
2017-02-12T09:58:55.878Z,1018.5
2017-02-12T09:59:55.865Z,1018.5
2017-02-12T10:00:55.846Z,1018.51
2017-02-12T10:01:55.828Z,1018.47
2017-02-12T10:02:55.811Z,1018.43
2017-02-12T10:03:55.794Z,1018.45
2017-02-12T10:04:55.777Z,1018.44
2017-02-12T10:05:55.763Z,1018.5
2017-02-12T10:06:55.744Z,1018.49
2017-02-12T10:07:55.733Z,1018.49
2017-02-12T10:08:55.712Z,1018.5
2017-02-12T10:09:55.696Z,1018.56
2017-02-12T10:10:55.680Z,1018.62
2017-02-12T10:11:55.659Z,1018.61
2017-02-12T10:12:55.645Z,1018.62
2017-02-12T10:13:55.627Z,1018.59
2017-02-12T10:14:55.609Z,1018.55
2017-02-12T10:15:55.593Z,1018.66
2017-02-12T10:16:55.576Z,1018.68
2017-02-12T10:17:55.562Z,1018.71
2017-02-12T10:18:55.541Z,1018.75
2017-02-12T10:19:55.522Z,1018.73
2017-02-12T10:20:55.505Z,1018.75
2017-02-12T10:21:55.495Z,1018.74
2017-02-12T10:22:55.472Z,1018.77
2017-02-12T10:23:55.457Z,1018.79
2017-02-12T10:24:55.439Z,1018.78
2017-02-12T10:25:55.426Z,1018.76
2017-02-12T10:26:55.409Z,1018.76
2017-02-12T10:27:55.391Z,1018.74
2017-02-12T10:28:55.375Z,1018.74
2017-02-12T10:29:55.360Z,1018.89
2017-02-12T10:30:55.344Z,1018.91
2017-02-12T10:31:55.329Z,1018.9
2017-02-12T10:32:55.313Z,1018.85
2017-02-12T10:33:55.300Z,1018.96
2017-02-12T10:34:55.280Z,1018.95
2017-02-12T10:35:55.266Z,1018.98
2017-02-12T10:36:55.251Z,1018.96
2017-02-12T10:37:55.238Z,1018.99
2017-02-12T10:38:55.225Z,1018.98
2017-02-12T10:39:55.214Z,1019.02
2017-02-12T10:40:55.196Z,1018.95
2017-02-12T10:41:55.178Z,1018.93
2017-02-12T10:42:55.162Z,1018.97
2017-02-12T10:43:55.165Z,1018.98
2017-02-12T10:44:55.129Z,1018.99
2017-02-12T10:45:55.119Z,1018.95
2017-02-12T10:46:55.103Z,1018.97
2017-02-12T10:47:55.095Z,1018.96
2017-02-12T10:48:55.067Z,1018.91
2017-02-12T10:49:55.075Z,1018.98
2017-02-12T10:50:55.047Z,1018.96
2017-02-12T10:51:55.027Z,1018.99
2017-02-12T10:52:55.008Z,1018.95
2017-02-12T10:53:54.991Z,1019.03
2017-02-12T10:54:54.972Z,1019.06
2017-02-12T10:55:54.958Z,1019.15
2017-02-12T10:56:54.940Z,1019.12
2017-02-12T10:57:54.926Z,1019.09
2017-02-12T10:58:54.907Z,1019.12
2017-02-12T10:59:54.889Z,1019.13
2017-02-12T11:00:54.877Z,1019.16
2017-02-12T11:01:54.855Z,1019.2
2017-02-12T11:02:54.840Z,1019.17
2017-02-12T11:03:54.822Z,1019.19
2017-02-12T11:04:54.806Z,1019.11
2017-02-12T11:05:54.788Z,1019.11
2017-02-12T11:06:54.774Z,1019.17
2017-02-12T11:07:54.756Z,1019.14
2017-02-12T11:08:54.739Z,1019.14
2017-02-12T11:09:54.724Z,1019.11
2017-02-12T11:10:54.705Z,1019.24
2017-02-12T11:11:54.690Z,1019.13
2017-02-12T11:12:54.675Z,1019.16
2017-02-12T11:13:54.658Z,1019.14
2017-02-12T11:14:54.641Z,1019.12
2017-02-12T11:15:54.626Z,1019.15
2017-02-12T11:16:54.611Z,1019.12
2017-02-12T11:17:54.595Z,1019.09
2017-02-12T11:18:54.579Z,1019.12
2017-02-12T11:19:54.564Z,1019.12
2017-02-12T11:20:54.550Z,1019.11
2017-02-12T11:21:54.531Z,1019.08
2017-02-12T11:22:54.518Z,1019.08
2017-02-12T11:23:54.501Z,1019.1
2017-02-12T11:24:54.490Z,1019.17
2017-02-12T11:25:54.467Z,1019.13
2017-02-12T11:26:54.457Z,1019.13
2017-02-12T11:27:54.435Z,1019.13
2017-02-12T11:28:54.421Z,1019.07
2017-02-12T11:29:54.402Z,1019.09
2017-02-12T11:30:54.388Z,1019.09
2017-02-12T11:31:54.373Z,1019.08
2017-02-12T11:32:54.357Z,1019.07
2017-02-12T11:33:54.342Z,1018.97
2017-02-12T11:34:54.329Z,1018.99
2017-02-12T11:35:54.313Z,1019.01
2017-02-12T11:36:54.297Z,1019.08
2017-02-12T11:37:54.285Z,1019.13
2017-02-12T11:38:54.267Z,1019.19
2017-02-12T11:39:54.253Z,1019.12
2017-02-12T11:40:54.239Z,1019.21
2017-02-12T11:41:54.231Z,1019.2
2017-02-12T11:42:54.213Z,1019.23
2017-02-12T11:43:54.198Z,1019.23
2017-02-12T11:44:54.186Z,1019.2
2017-02-12T11:45:54.175Z,1019.18
2017-02-12T11:46:54.157Z,1019.19
2017-02-12T11:47:54.144Z,1019.18
2017-02-12T11:48:54.133Z,1019.16
2017-02-12T11:49:54.121Z,1019.21
2017-02-12T11:50:54.108Z,1019.27
2017-02-12T11:51:54.097Z,1019.29
2017-02-12T11:52:54.085Z,1019.3
2017-02-12T11:53:54.070Z,1019.31
2017-02-12T11:54:54.058Z,1019.3
2017-02-12T11:55:54.045Z,1019.28
2017-02-12T11:56:54.032Z,1019.2
2017-02-12T11:57:54.019Z,1019.22
2017-02-12T11:58:54.005Z,1019.21
2017-02-12T11:59:53.993Z,1019.23
2017-02-12T12:00:53.978Z,1019.29
2017-02-12T12:01:53.965Z,1019.29
2017-02-12T12:02:53.953Z,1019.25
2017-02-12T12:03:53.938Z,1019.34
2017-02-12T12:04:53.925Z,1019.34
2017-02-12T12:05:53.911Z,1019.37
2017-02-12T12:06:53.897Z,1019.35
2017-02-12T12:07:53.882Z,1019.32